Time;durP1;ratioP1;P1;durP2;ratioP2;P2;SDS_P1;SDS_P2;PMS_P1;PMS_P2;Temp;Humidity;BMP_temperature;BMP_pressure;BME280_temperature;BME280_humidity;BME280_pressure;Samples;Min_cycle;Max_cycle;Signal;HPM_P1;HPM_P2
2021/12/17 00:00:46;;;;;;;15.48;8.23;;;7.90;99.90;;;;;;5138162;27;20224;-70
2021/12/17 00:03:19;;;;;;;20.30;7.95;;;7.90;99.90;;;;;;5142826;27;20729;-69
2021/12/17 00:08:51;;;;;;;11.07;6.03;;;7.80;99.90;;;;;;5080981;28;20224;-68
2021/12/17 00:11:21;;;;;;;10.40;6.10;;;7.80;99.90;;;;;;5135033;27;20198;-68
2021/12/17 00:13:50;;;;;;;12.95;6.80;;;7.80;99.90;;;;;;5142706;27;20869;-67
2021/12/17 00:16:22;;;;;;;8.68;6.82;;;7.70;99.90;;;;;;5138893;27;20279;-67
2021/12/17 00:19:04;;;;;;;16.92;6.78;;;7.80;99.90;;;;;;5138099;27;20249;-69
2021/12/17 00:46:31;;;;;;;10.07;7.43;;;7.90;99.90;;;;;;5771575;22;20249;-68
2021/12/17 00:50:02;;;;;;;9.13;5.47;;;7.90;99.90;;;;;;5033764;28;20228;-67
2021/12/17 00:52:32;;;;;;;10.77;5.35;;;7.90;99.90;;;;;;5036289;28;20911;-69
2021/12/17 00:55:03;;;;;;;6.65;4.65;;;7.90;99.90;;;;;;5035485;28;20233;-67
2021/12/17 00:57:36;;;;;;;8.93;4.50;;;7.90;99.90;;;;;;5035429;28;20298;-70
2021/12/17 01:00:07;;;;;;;7.25;4.53;;;7.90;99.90;;;;;;5030449;28;20309;-67
2021/12/17 01:02:38;;;;;;;7.18;5.18;;;7.90;99.90;;;;;;5021986;28;20194;-70
2021/12/17 01:05:10;;;;;;;7.03;4.35;;;7.90;99.90;;;;;;5021776;28;20780;-70
2021/12/17 01:07:41;;;;;;;7.13;4.43;;;7.90;99.90;;;;;;5021628;28;20295;-70
2021/12/17 01:10:15;;;;;;;9.65;5.55;;;8.00;99.90;;;;;;5020753;28;20226;-70
2021/12/17 01:12:43;;;;;;;8.13;4.95;;;8.00;99.90;;;;;;5021326;28;20245;-70
2021/12/17 01:15:14;;;;;;;6.60;4.50;;;8.00;99.90;;;;;;5020998;28;20285;-68
2021/12/17 01:17:44;;;;;;;6.40;4.18;;;8.10;99.90;;;;;;5020902;28;20198;-69
2021/12/17 01:20:26;;;;;;;6.85;4.50;;;8.10;99.90;;;;;;5021703;28;20250;-68
2021/12/17 01:23:20;;;;;;;5.22;3.53;;;8.20;99.90;;;;;;5021167;28;20293;-70
2021/12/17 01:37:33;;;;;;;6.10;5.00;;;8.40;99.90;;;;;;5032963;28;20305;-72
2021/12/17 01:42:44;;;;;;;9.25;5.10;;;8.30;99.90;;;;;;5033273;28;20301;-71
2021/12/17 01:45:13;;;;;;;10.80;6.18;;;8.30;99.90;;;;;;5032525;28;20844;-70
2021/12/17 01:47:41;;;;;;;8.88;6.03;;;8.20;99.90;;;;;;5032538;28;20813;-71
2021/12/17 01:56:01;;;;;;;11.95;6.50;;;8.20;99.90;;;;;;5032565;28;20285;-74
2021/12/17 02:01:17;;;;;;;11.63;7.47;;;8.30;99.90;;;;;;5032334;28;20205;-68
2021/12/17 02:03:44;;;;;;;13.73;8.00;;;8.30;99.90;;;;;;5032344;28;20709;-68
2021/12/17 02:06:12;;;;;;;11.02;6.25;;;8.30;99.90;;;;;;5032464;28;20753;-71
2021/12/17 02:08:44;;;;;;;11.35;6.43;;;8.30;99.90;;;;;;5031875;28;20783;-70
2021/12/17 02:11:54;;;;;;;13.25;6.57;;;8.30;99.90;;;;;;5032302;28;20297;-70
2021/12/17 02:20:38;;;;;;;12.18;7.22;;;8.20;99.90;;;;;;5054782;28;20227;-69
2021/12/17 02:28:41;;;;;;;16.05;7.22;;;8.30;99.90;;;;;;5054707;28;20263;-70
2021/12/17 02:28:59;;;;;;;13.75;7.00;;;8.40;99.90;;;;;;5054553;28;20244;-68
2021/12/17 02:31:29;;;;;;;12.15;7.78;;;8.40;99.90;;;;;;5054575;28;20777;-68
2021/12/17 02:34:01;;;;;;;12.73;6.75;;;8.50;99.90;;;;;;5053802;28;20281;-67
2021/12/17 02:36:33;;;;;;;11.00;6.80;;;8.50;99.90;;;;;;5054349;28;20307;-68
2021/12/17 02:39:21;;;;;;;13.32;7.60;;;8.50;99.90;;;;;;5046539;28;20280;-67
2021/12/17 02:47:20;;;;;;;12.00;5.57;;;8.20;99.90;;;;;;5040791;28;20301;-67
2021/12/17 02:49:49;;;;;;;12.38;6.78;;;8.20;99.90;;;;;;5040640;28;20225;-68
2021/12/17 02:52:18;;;;;;;10.90;6.85;;;8.20;99.90;;;;;;5040466;28;20217;-68
2021/12/17 02:54:48;;;;;;;13.93;6.70;;;8.10;99.90;;;;;;5040223;28;20894;-68
2021/12/17 02:57:16;;;;;;;14.35;8.25;;;8.10;99.90;;;;;;5041194;28;20201;-70
2021/12/17 02:59:45;;;;;;;16.38;8.00;;;8.00;99.90;;;;;;5040528;28;20851;-69
2021/12/17 03:02:13;;;;;;;12.30;7.40;;;8.10;99.90;;;;;;5041406;28;20319;-69
2021/12/17 03:04:42;;;;;;;14.25;7.45;;;8.10;99.90;;;;;;5041128;28;20305;-69
2021/12/17 03:07:12;;;;;;;13.45;7.90;;;8.10;99.90;;;;;;5041302;28;20205;-69
2021/12/17 03:10:01;;;;;;;11.05;6.90;;;8.10;99.90;;;;;;5040767;28;20206;-68
2021/12/17 03:12:34;;;;;;;14.88;7.32;;;8.20;99.90;;;;;;5041414;28;20291;-68
2021/12/17 03:15:10;;;;;;;11.93;6.50;;;8.20;99.90;;;;;;5040264;28;20228;-67
2021/12/17 03:18:03;;;;;;;9.38;5.90;;;8.20;99.90;;;;;;5041428;28;20205;-68
2021/12/17 03:26:06;;;;;;;7.55;5.30;;;8.10;99.90;;;;;;5040055;28;20905;-70
2021/12/17 03:28:35;;;;;;;10.20;5.85;;;8.00;99.90;;;;;;5040271;28;20225;-71
2021/12/17 03:31:03;;;;;;;9.23;6.15;;;7.90;99.90;;;;;;5039674;28;20197;-71
2021/12/17 03:33:31;;;;;;;9.38;7.03;;;7.90;99.90;;;;;;5039501;28;20220;-73
2021/12/17 03:35:59;;;;;;;10.68;6.50;;;7.80;99.90;;;;;;5039808;28;20308;-68
2021/12/17 03:38:27;;;;;;;9.98;6.88;;;7.80;99.90;;;;;;5039870;28;20368;-67
2021/12/17 03:41:09;;;;;;;9.40;6.93;;;7.80;99.90;;;;;;5040088;28;20222;-68
2021/12/17 03:43:38;;;;;;;7.57;5.97;;;7.80;99.90;;;;;;5039146;28;20240;-67
2021/12/17 03:46:06;;;;;;;8.18;5.47;;;7.90;99.90;;;;;;5039399;28;20844;-67
2021/12/17 03:48:37;;;;;;;8.73;6.13;;;7.90;99.90;;;;;;5039951;28;20312;-67
2021/12/17 03:51:11;;;;;;;7.57;5.97;;;8.00;99.90;;;;;;5038502;28;20231;-70
2021/12/17 03:53:39;;;;;;;8.20;6.03;;;8.00;99.90;;;;;;5039185;28;20297;-69
2021/12/17 03:56:07;;;;;;;9.50;6.95;;;8.00;99.90;;;;;;5039402;28;20218;-70
2021/12/17 03:58:35;;;;;;;8.10;5.82;;;8.00;99.90;;;;;;5039509;28;20284;-69
2021/12/17 04:01:05;;;;;;;9.63;6.35;;;8.00;99.90;;;;;;5039790;28;20209;-70
2021/12/17 04:03:34;;;;;;;6.13;4.90;;;7.90;99.90;;;;;;5039176;28;20293;-71
2021/12/17 04:06:03;;;;;;;8.00;5.82;;;7.90;99.90;;;;;;5039275;28;20249;-70
2021/12/17 04:08:31;;;;;;;6.15;4.97;;;7.90;99.90;;;;;;5038934;28;20221;-70
2021/12/17 04:11:04;;;;;;;7.45;5.85;;;7.90;99.90;;;;;;5039585;28;20233;-69
2021/12/17 04:13:36;;;;;;;8.80;6.32;;;8.00;99.90;;;;;;5039369;28;20324;-69
2021/12/17 04:16:08;;;;;;;8.55;5.10;;;8.10;99.90;;;;;;5040681;28;20234;-68
2021/12/17 04:18:37;;;;;;;7.00;4.88;;;8.10;99.90;;;;;;5048531;28;20209;-67
2021/12/17 04:21:13;;;;;;;9.05;5.65;;;8.10;99.90;;;;;;5053000;28;20232;-68
2021/12/17 04:23:42;;;;;;;6.72;5.82;;;8.00;99.90;;;;;;5051215;28;20205;-67
2021/12/17 04:26:10;;;;;;;7.30;5.45;;;8.00;99.90;;;;;;5051880;28;20245;-66
2021/12/17 04:28:43;;;;;;;7.63;5.60;;;7.90;99.90;;;;;;5045658;28;20260;-66
2021/12/17 04:31:13;;;;;;;10.65;6.22;;;7.90;99.90;;;;;;5042912;28;20198;-68
2021/12/17 04:33:42;;;;;;;7.57;5.35;;;7.90;99.90;;;;;;5041625;28;20194;-68
2021/12/17 04:36:14;;;;;;;7.45;5.28;;;7.80;99.90;;;;;;5040244;28;20222;-68
2021/12/17 04:38:42;;;;;;;8.73;5.88;;;7.70;99.90;;;;;;5038605;28;20832;-66
2021/12/17 04:44:12;;;;;;;10.30;5.68;;;7.60;99.90;;;;;;4995618;28;20838;-68
2021/12/17 04:46:46;;;;;;;7.03;5.25;;;7.70;99.90;;;;;;5029360;28;20205;-67
2021/12/17 04:57:32;;;;;;;12.90;6.25;;;7.80;99.90;;;;;;5039221;28;20288;-67
2021/12/17 05:00:04;;;;;;;11.20;7.03;;;7.80;99.90;;;;;;5038361;28;20197;-67
2021/12/17 05:02:39;;;;;;;9.88;6.30;;;7.90;99.90;;;;;;5037921;28;20205;-66
2021/12/17 05:05:09;;;;;;;8.63;5.25;;;7.90;99.90;;;;;;5038114;28;20806;-67
2021/12/17 05:07:41;;;;;;;5.97;4.25;;;7.90;99.90;;;;;;5038583;28;20193;-67
2021/12/17 05:10:18;;;;;;;7.18;4.82;;;7.90;99.90;;;;;;5038271;28;20300;-67
2021/12/17 05:18:17;;;;;;;7.28;4.32;;;7.70;99.90;;;;;;5025881;28;20197;-68
2021/12/17 05:20:48;;;;;;;7.68;4.85;;;7.70;99.90;;;;;;5037773;28;20287;-69
2021/12/17 05:23:16;;;;;;;9.23;5.22;;;7.60;99.90;;;;;;5038123;28;20751;-69
2021/12/17 05:25:44;;;;;;;10.93;5.00;;;7.70;99.90;;;;;;5037948;28;20250;-68
2021/12/17 05:28:12;;;;;;;10.30;5.65;;;7.60;99.90;;;;;;5038601;28;20214;-70
2021/12/17 05:30:45;;;;;;;10.85;5.38;;;7.60;99.90;;;;;;5038817;28;20201;-70
2021/12/17 05:33:16;;;;;;;13.30;5.65;;;7.60;99.90;;;;;;5038022;28;20572;-71
2021/12/17 05:35:44;;;;;;;9.60;4.88;;;7.60;99.90;;;;;;5037537;28;20732;-70
2021/12/17 05:38:14;;;;;;;11.00;5.88;;;7.60;99.90;;;;;;5047321;28;20224;-70
2021/12/17 05:40:43;;;;;;;14.02;6.05;;;7.70;99.90;;;;;;5044370;28;20296;-70
2021/12/17 05:43:13;;;;;;;10.50;5.40;;;7.70;99.90;;;;;;5042982;28;20251;-70
2021/12/17 05:45:50;;;;;;;8.05;5.20;;;7.70;99.90;;;;;;5043540;28;20253;-73
2021/12/17 05:48:22;;;;;;;9.15;5.43;;;7.60;99.90;;;;;;5038101;28;20258;-69
2021/12/17 05:50:52;;;;;;;9.80;5.18;;;7.60;99.90;;;;;;5046908;28;20293;-70
2021/12/17 05:53:20;;;;;;;6.03;3.90;;;7.70;99.90;;;;;;5042866;28;20285;-70
2021/12/17 05:55:48;;;;;;;6.45;3.92;;;7.70;99.90;;;;;;5041437;28;20283;-70
2021/12/17 05:58:17;;;;;;;6.22;4.35;;;7.70;99.90;;;;;;5037917;28;20289;-70
2021/12/17 06:00:46;;;;;;;6.68;3.72;;;7.70;99.90;;;;;;5047278;28;20200;-71
2021/12/17 06:03:14;;;;;;;8.05;4.65;;;7.70;99.90;;;;;;5043596;28;20219;-70
2021/12/17 06:05:43;;;;;;;6.65;3.97;;;7.70;99.90;;;;;;5041689;28;20222;-69
2021/12/17 06:08:11;;;;;;;6.60;4.45;;;7.70;99.90;;;;;;5038032;28;20205;-70
2021/12/17 06:10:40;;;;;;;7.90;4.47;;;7.80;99.90;;;;;;5046199;28;20304;-69
2021/12/17 06:13:08;;;;;;;7.57;4.05;;;7.80;99.90;;;;;;5046530;28;20244;-70
2021/12/17 06:15:36;;;;;;;7.85;4.82;;;7.80;99.90;;;;;;5041510;28;20316;-70
2021/12/17 06:18:04;;;;;;;8.05;5.32;;;7.80;99.90;;;;;;5041419;28;20212;-70
2021/12/17 06:20:32;;;;;;;7.35;5.32;;;7.80;99.90;;;;;;5049652;28;20660;-70
2021/12/17 06:23:02;;;;;;;9.23;6.22;;;7.70;99.90;;;;;;5021251;28;20198;-69
2021/12/17 06:25:30;;;;;;;9.25;5.85;;;7.60;99.90;;;;;;5021861;28;20344;-71
2021/12/17 06:27:58;;;;;;;7.47;6.20;;;7.50;99.90;;;;;;5030827;28;20354;-70
2021/12/17 06:30:26;;;;;;;10.52;5.97;;;7.60;99.90;;;;;;5022948;28;20293;-73
2021/12/17 06:32:54;;;;;;;10.38;5.78;;;7.60;99.90;;;;;;5022099;28;20217;-73
2021/12/17 06:35:22;;;;;;;12.10;6.07;;;7.60;99.90;;;;;;5021159;28;20226;-71
2021/12/17 06:37:50;;;;;;;9.25;6.13;;;7.60;99.90;;;;;;5021233;28;20683;-73
2021/12/17 06:40:19;;;;;;;11.20;5.53;;;7.60;99.90;;;;;;5021215;28;20866;-67
2021/12/17 06:42:47;;;;;;;10.20;6.50;;;7.60;99.90;;;;;;5021102;28;20469;-67
2021/12/17 06:45:21;;;;;;;12.57;6.30;;;7.60;99.90;;;;;;5020894;28;20309;-67
2021/12/17 06:47:56;;;;;;;9.07;5.50;;;7.50;99.90;;;;;;5021286;28;20288;-67
2021/12/17 06:59:02;;;;;;;12.13;6.10;;;7.50;99.90;;;;;;4957454;28;20261;-67
2021/12/17 07:21:33;;;;;;;9.27;5.25;;;7.20;99.90;;;;;;4960448;28;20287;-66
2021/12/17 07:35:39;;;;;;;8.52;4.60;;;7.30;99.90;;;;;;5037420;28;20297;-65
2021/12/17 07:40:53;;;;;;;11.00;5.35;;;7.40;99.90;;;;;;5039178;28;20190;-64
2021/12/17 07:43:35;;;;;;;10.77;6.10;;;7.30;99.90;;;;;;5038726;28;20273;-64
2021/12/17 07:46:07;;;;;;;11.82;5.82;;;7.30;99.90;;;;;;5038355;28;20296;-64
2021/12/17 07:48:36;;;;;;;10.10;6.30;;;7.40;99.90;;;;;;5039328;28;20730;-64
2021/12/17 07:51:06;;;;;;;14.32;6.70;;;7.40;99.90;;;;;;5039868;28;20305;-64
2021/12/17 07:53:39;;;;;;;13.35;7.05;;;7.40;99.90;;;;;;5039623;28;20871;-64
2021/12/17 07:56:09;;;;;;;12.65;6.13;;;7.50;99.90;;;;;;5038857;28;20241;-64
2021/12/17 07:58:37;;;;;;;21.92;9.00;;;7.50;99.90;;;;;;5039309;28;20194;-64
2021/12/17 08:01:08;;;;;;;16.38;8.02;;;7.40;99.90;;;;;;5039305;28;20277;-64
2021/12/17 08:03:36;;;;;;;12.27;7.22;;;7.30;99.90;;;;;;5038573;28;20189;-64
2021/12/17 08:06:05;;;;;;;16.88;7.22;;;7.40;99.90;;;;;;5042379;28;20213;-64
2021/12/17 08:08:33;;;;;;;19.40;8.30;;;7.40;99.90;;;;;;5042572;28;20312;-64
2021/12/17 08:11:01;;;;;;;12.48;6.75;;;7.40;99.90;;;;;;5040609;28;20236;-64
2021/12/17 08:13:32;;;;;;;16.45;7.00;;;7.40;99.90;;;;;;5042472;28;20886;-64
2021/12/17 08:16:11;;;;;;;14.30;6.22;;;7.40;99.90;;;;;;5039092;28;20241;-64
2021/12/17 08:19:06;;;;;;;13.32;7.40;;;7.40;99.90;;;;;;5038879;28;20770;-64
2021/12/17 08:27:23;;;;;;;11.40;6.85;;;7.30;99.90;;;;;;5047784;28;20262;-65
2021/12/17 08:30:08;;;;;;;12.52;5.90;;;7.30;99.90;;;;;;5037251;28;20198;-64
2021/12/17 08:32:36;;;;;;;10.07;5.13;;;7.30;99.90;;;;;;5032451;28;20328;-73
2021/12/17 08:35:07;;;;;;;10.02;6.53;;;7.20;99.90;;;;;;5035075;28;20872;-72
2021/12/17 08:37:35;;;;;;;10.75;5.60;;;7.20;99.90;;;;;;5037619;28;20276;-73
2021/12/17 08:40:04;;;;;;;7.03;4.57;;;7.20;99.90;;;;;;5031802;28;20837;-72
2021/12/17 08:42:32;;;;;;;4.88;3.78;;;7.20;99.90;;;;;;5035618;28;20914;-71
2021/12/17 08:45:00;;;;;;;3.97;3.53;;;7.10;99.90;;;;;;5034046;28;20300;-73
2021/12/17 08:47:28;;;;;;;5.25;4.45;;;7.10;99.90;;;;;;5037106;28;20881;-69
2021/12/17 08:49:57;;;;;;;5.60;3.97;;;7.00;99.90;;;;;;5035713;28;20229;-70
2021/12/17 08:52:26;;;;;;;4.30;3.60;;;7.00;99.90;;;;;;5040611;28;20831;-72
2021/12/17 08:54:55;;;;;;;5.90;3.63;;;7.00;99.90;;;;;;5039715;28;20227;-70
2021/12/17 08:57:23;;;;;;;5.65;3.67;;;6.90;99.90;;;;;;5042778;28;20270;-71
2021/12/17 08:59:51;;;;;;;3.65;3.30;;;6.90;99.90;;;;;;5040682;28;20233;-72
2021/12/17 09:02:19;;;;;;;5.45;3.80;;;6.80;99.90;;;;;;5036888;28;20189;-73
2021/12/17 09:04:47;;;;;;;4.72;4.13;;;6.80;99.90;;;;;;5036365;28;20260;-71
2021/12/17 09:07:15;;;;;;;6.57;4.55;;;6.70;99.90;;;;;;5031872;28;20208;-70
2021/12/17 09:09:47;;;;;;;7.45;5.32;;;6.70;99.90;;;;;;5037861;28;20197;-73
2021/12/17 09:12:15;;;;;;;7.35;6.05;;;6.60;99.90;;;;;;5036314;28;20257;-72
2021/12/17 09:14:44;;;;;;;11.75;7.70;;;6.60;99.90;;;;;;5036527;28;20294;-72
2021/12/17 09:17:11;;;;;;;9.32;6.10;;;6.60;99.90;;;;;;5036701;28;20216;-72
2021/12/17 09:19:39;;;;;;;11.57;7.53;;;6.70;99.90;;;;;;5035437;28;20189;-71
2021/12/17 09:22:07;;;;;;;13.48;7.72;;;6.80;99.90;;;;;;5036811;28;20201;-71
2021/12/17 09:24:35;;;;;;;11.68;8.43;;;6.90;99.90;;;;;;5036056;28;20260;-70
2021/12/17 09:27:05;;;;;;;12.45;9.68;;;7.00;99.90;;;;;;5036544;28;20273;-69
2021/12/17 09:29:33;;;;;;;16.38;10.45;;;7.10;99.90;;;;;;5036671;28;20205;-72
2021/12/17 09:32:01;;;;;;;14.38;10.88;;;7.20;99.90;;;;;;5033752;28;20359;-70
2021/12/17 09:34:29;;;;;;;13.88;9.63;;;7.30;99.90;;;;;;5036549;28;20205;-71
2021/12/17 09:36:56;;;;;;;15.15;10.43;;;7.20;99.90;;;;;;5036549;28;20314;-72
2021/12/17 09:39:24;;;;;;;17.92;11.35;;;7.20;99.90;;;;;;5036921;28;20208;-71
2021/12/17 09:41:53;;;;;;;19.92;12.27;;;7.10;99.90;;;;;;5035655;28;20247;-65
2021/12/17 09:44:22;;;;;;;19.05;12.38;;;7.00;99.90;;;;;;5032275;28;20711;-71
2021/12/17 09:46:51;;;;;;;22.27;13.32;;;7.00;99.90;;;;;;5035955;28;20756;-70
2021/12/17 09:49:20;;;;;;;25.05;12.50;;;7.00;99.90;;;;;;5037421;28;20784;-64
2021/12/17 09:51:48;;;;;;;20.48;14.40;;;6.90;99.90;;;;;;5039902;28;20253;-65
2021/12/17 09:54:17;;;;;;;21.50;13.40;;;6.90;99.90;;;;;;5039656;28;20296;-69
2021/12/17 09:56:45;;;;;;;19.65;12.95;;;7.00;99.90;;;;;;5040459;28;20293;-72
2021/12/17 09:59:14;;;;;;;19.88;13.35;;;7.10;99.90;;;;;;5041616;28;20347;-70
2021/12/17 10:01:45;;;;;;;19.25;12.18;;;7.10;99.90;;;;;;5040169;28;20253;-71
2021/12/17 10:04:19;;;;;;;21.42;12.75;;;7.10;99.90;;;;;;5046689;28;20217;-71
2021/12/17 10:06:49;;;;;;;21.15;11.75;;;7.10;99.90;;;;;;5048905;28;20235;-70
2021/12/17 10:09:17;;;;;;;21.08;11.30;;;7.10;99.90;;;;;;5042659;28;20205;-71
2021/12/17 10:12:05;;;;;;;24.60;12.27;;;7.00;99.90;;;;;;5046154;28;20313;-71
2021/12/17 10:14:34;;;;;;;18.77;11.30;;;7.00;99.90;;;;;;5045885;28;20233;-70
2021/12/17 10:17:11;;;;;;;15.73;10.27;;;7.10;99.90;;;;;;5041548;28;20206;-69
2021/12/17 10:19:47;;;;;;;17.25;10.77;;;7.10;99.90;;;;;;5045520;28;20205;-69
2021/12/17 10:22:17;;;;;;;19.25;11.30;;;7.00;99.90;;;;;;5046017;28;20755;-70
2021/12/17 10:24:56;;;;;;;17.17;10.35;;;7.00;99.90;;;;;;5041459;28;20222;-69
2021/12/17 10:27:27;;;;;;;13.73;9.32;;;7.10;99.90;;;;;;5043396;28;20339;-69
2021/12/17 10:29:55;;;;;;;12.82;9.10;;;7.20;99.90;;;;;;5040454;28;20274;-70
2021/12/17 10:32:27;;;;;;;7.25;5.80;;;7.30;99.90;;;;;;5039631;28;20621;-69
2021/12/17 10:35:03;;;;;;;7.28;6.00;;;7.40;99.90;;;;;;5042857;28;20279;-69
2021/12/17 10:37:37;;;;;;;8.00;5.85;;;7.50;99.90;;;;;;5042751;28;20785;-70
2021/12/17 10:40:26;;;;;;;6.30;5.70;;;7.50;99.90;;;;;;5042608;28;20226;-70
2021/12/17 10:43:01;;;;;;;9.00;6.10;;;7.50;99.90;;;;;;5044800;28;20233;-71
2021/12/17 10:45:32;;;;;;;7.75;5.63;;;7.40;99.90;;;;;;5044564;28;20233;-70
2021/12/17 10:48:29;;;;;;;10.80;6.60;;;7.30;99.90;;;;;;5044889;28;20225;-69
2021/12/17 10:51:19;;;;;;;7.25;5.60;;;7.30;99.90;;;;;;5043952;28;20203;-69
2021/12/17 10:53:54;;;;;;;13.15;6.95;;;7.40;99.90;;;;;;5041538;28;20861;-70
2021/12/17 10:56:24;;;;;;;9.57;7.90;;;7.50;99.90;;;;;;5035169;28;20225;-64
2021/12/17 10:59:02;;;;;;;8.50;7.55;;;7.60;99.90;;;;;;5037781;28;20259;-64
2021/12/17 11:01:33;;;;;;;12.38;7.75;;;7.70;99.90;;;;;;5037725;28;20233;-63
2021/12/17 11:04:08;;;;;;;11.50;8.55;;;7.70;99.90;;;;;;5038487;28;20313;-65
2021/12/17 11:06:49;;;;;;;13.73;9.65;;;7.80;99.90;;;;;;5038688;28;20701;-64
2021/12/17 11:09:34;;;;;;;13.07;8.45;;;7.90;99.90;;;;;;5037861;28;20683;-63
2021/12/17 11:12:07;;;;;;;9.63;8.10;;;7.90;99.90;;;;;;5034109;28;20699;-64
2021/12/17 11:14:35;;;;;;;10.65;7.65;;;7.90;99.90;;;;;;5036234;28;20245;-71
2021/12/17 11:17:03;;;;;;;9.90;7.22;;;7.90;99.90;;;;;;5039228;28;20198;-73
2021/12/17 11:19:33;;;;;;;10.35;8.55;;;8.00;99.90;;;;;;5038100;28;20205;-64
2021/12/17 11:22:02;;;;;;;14.07;9.68;;;8.10;99.90;;;;;;5038849;28;20240;-65
2021/12/17 11:24:31;;;;;;;15.32;10.85;;;8.20;99.90;;;;;;5037703;28;20194;-65
2021/12/17 11:26:59;;;;;;;14.70;11.65;;;8.20;99.90;;;;;;5037409;28;20301;-62
2021/12/17 11:29:27;;;;;;;19.38;13.10;;;8.20;99.90;;;;;;5038113;28;20301;-65
2021/12/17 11:31:56;;;;;;;16.25;11.77;;;8.30;99.90;;;;;;5038151;28;20221;-65
2021/12/17 11:34:24;;;;;;;16.65;11.80;;;8.40;99.90;;;;;;5037620;28;20799;-64
2021/12/17 11:36:54;;;;;;;11.18;9.43;;;8.30;99.90;;;;;;5037542;28;20566;-65
2021/12/17 11:39:25;;;;;;;13.70;10.23;;;8.30;99.90;;;;;;5036682;28;20464;-64
2021/12/17 11:42:05;;;;;;;16.55;10.55;;;8.20;99.90;;;;;;5033117;28;20236;-64
2021/12/17 11:44:41;;;;;;;15.30;9.65;;;8.20;99.90;;;;;;5036519;28;20339;-64
2021/12/17 11:47:12;;;;;;;12.02;9.07;;;8.20;99.90;;;;;;5036915;28;20212;-72
2021/12/17 11:49:47;;;;;;;11.35;8.95;;;8.20;99.90;;;;;;5037779;28;20208;-72
2021/12/17 11:52:37;;;;;;;13.70;9.48;;;8.30;99.90;;;;;;5037778;28;20649;-72
2021/12/17 11:55:23;;;;;;;17.13;9.45;;;8.30;99.90;;;;;;5037356;28;20253;-64
2021/12/17 11:57:53;;;;;;;13.88;9.07;;;8.30;99.90;;;;;;5036969;28;20704;-63
2021/12/17 12:00:26;;;;;;;9.63;8.05;;;8.30;99.90;;;;;;5042005;28;20314;-63
2021/12/17 12:02:55;;;;;;;10.07;7.63;;;8.30;99.90;;;;;;5048145;28;20198;-71
2021/12/17 12:05:38;;;;;;;7.40;5.93;;;8.30;99.90;;;;;;5054461;28;20222;-74
2021/12/17 12:08:31;;;;;;;8.85;6.60;;;8.30;99.90;;;;;;5051694;28;20282;-70
2021/12/17 12:11:10;;;;;;;8.90;6.10;;;8.20;99.90;;;;;;5045072;28;20201;-70
2021/12/17 12:13:42;;;;;;;7.03;5.93;;;8.20;99.90;;;;;;5042545;28;20231;-71
2021/12/17 12:16:11;;;;;;;10.35;6.93;;;8.20;99.90;;;;;;5041860;28;20664;-70
2021/12/17 12:18:49;;;;;;;7.72;6.03;;;8.10;99.90;;;;;;5042816;28;20212;-70
2021/12/17 12:21:18;;;;;;;7.65;5.30;;;8.10;99.90;;;;;;5041175;28;20225;-70
2021/12/17 12:23:57;;;;;;;7.47;5.50;;;8.00;99.90;;;;;;5040392;28;20951;-74
2021/12/17 12:26:37;;;;;;;8.27;4.93;;;8.00;99.90;;;;;;5036730;28;20651;-72
2021/12/17 12:29:18;;;;;;;6.30;4.50;;;8.10;99.90;;;;;;5040442;28;20198;-70
2021/12/17 12:32:17;;;;;;;4.43;4.03;;;8.00;99.90;;;;;;5038757;28;20288;-69
2021/12/17 12:34:46;;;;;;;3.95;3.47;;;8.00;99.90;;;;;;5041349;28;20438;-70
2021/12/17 12:37:28;;;;;;;5.15;3.95;;;8.00;99.90;;;;;;5040090;28;20214;-69
2021/12/17 12:40:21;;;;;;;5.47;4.70;;;8.00;99.90;;;;;;5040465;28;20280;-71
2021/12/17 12:42:55;;;;;;;5.95;4.93;;;8.00;99.90;;;;;;5042017;28;20205;-71
2021/12/17 12:45:24;;;;;;;7.25;4.97;;;8.00;99.90;;;;;;5039470;28;20826;-70
2021/12/17 12:47:58;;;;;;;7.85;4.72;;;8.10;99.90;;;;;;5039576;28;20201;-71
2021/12/17 12:50:34;;;;;;;4.78;4.20;;;8.20;99.90;;;;;;5036448;28;20791;-70
2021/12/17 12:53:09;;;;;;;6.00;4.32;;;8.20;99.90;;;;;;5037744;28;20707;-69
2021/12/17 12:55:43;;;;;;;4.97;3.90;;;8.20;99.90;;;;;;5035803;28;20299;-71
2021/12/17 12:58:13;;;;;;;4.80;3.60;;;8.20;99.90;;;;;;5042753;28;20198;-70
2021/12/17 13:00:46;;;;;;;6.05;3.90;;;8.30;99.90;;;;;;5036238;28;20227;-73
2021/12/17 13:03:17;;;;;;;5.85;3.78;;;8.20;99.90;;;;;;5039895;28;20243;-69
2021/12/17 13:05:49;;;;;;;5.75;4.15;;;8.20;99.90;;;;;;5037880;28;20219;-71
2021/12/17 13:08:18;;;;;;;5.90;4.05;;;8.30;99.90;;;;;;5039956;28;20233;-71
2021/12/17 13:10:50;;;;;;;6.28;3.55;;;8.20;99.90;;;;;;5038952;28;20300;-70
2021/12/17 13:13:28;;;;;;;6.03;4.05;;;8.30;99.90;;;;;;5041548;28;20210;-62
2021/12/17 13:16:09;;;;;;;8.05;3.92;;;8.40;99.90;;;;;;5037078;28;20225;-71
2021/12/17 13:24:23;;;;;;;4.30;3.55;;;8.60;99.90;;;;;;5026944;28;20208;-68
2021/12/17 13:26:54;;;;;;;7.80;4.80;;;8.60;99.90;;;;;;5039161;28;20201;-69
2021/12/17 13:29:24;;;;;;;6.95;5.30;;;8.70;99.90;;;;;;5040742;28;20344;-69
2021/12/17 13:31:56;;;;;;;7.13;5.05;;;8.70;99.90;;;;;;5040919;28;20200;-70
2021/12/17 13:34:27;;;;;;;8.77;5.15;;;8.70;99.90;;;;;;5040789;28;20213;-68
2021/12/17 13:37:09;;;;;;;7.28;6.45;;;8.70;99.90;;;;;;5039525;28;20668;-69
2021/12/17 13:39:39;;;;;;;10.40;6.47;;;8.70;99.90;;;;;;5037742;28;20194;-69
2021/12/17 13:42:16;;;;;;;9.52;6.45;;;8.70;99.90;;;;;;5038114;28;20467;-70
2021/12/17 13:44:47;;;;;;;10.50;6.95;;;8.70;99.90;;;;;;5036788;28;20301;-69
2021/12/17 13:47:21;;;;;;;11.82;7.15;;;8.70;99.90;;;;;;5038845;28;20194;-69
2021/12/17 13:49:51;;;;;;;9.85;6.85;;;8.70;99.90;;;;;;5038229;28;20197;-71
2021/12/17 13:52:23;;;;;;;13.77;7.55;;;8.70;99.90;;;;;;5040625;28;20224;-72
2021/12/17 13:54:52;;;;;;;12.45;7.57;;;8.70;99.90;;;;;;5039410;28;20233;-72
2021/12/17 13:57:24;;;;;;;9.77;6.82;;;8.70;99.90;;;;;;5039514;28;20837;-70
2021/12/17 13:59:53;;;;;;;13.00;8.27;;;8.80;99.90;;;;;;5035334;28;20292;-71
2021/12/17 14:02:23;;;;;;;10.55;6.88;;;8.80;99.90;;;;;;5036477;28;20204;-70
2021/12/17 14:05:04;;;;;;;9.07;5.93;;;8.80;99.90;;;;;;5035761;28;20326;-70
2021/12/17 14:07:34;;;;;;;12.95;7.43;;;8.80;99.90;;;;;;5036086;28;20220;-70
2021/12/17 14:10:09;;;;;;;9.88;6.63;;;8.70;99.90;;;;;;5035129;28;20687;-70
2021/12/17 14:12:41;;;;;;;10.65;6.95;;;8.70;99.90;;;;;;5035713;28;20224;-72
2021/12/17 14:15:32;;;;;;;11.38;6.80;;;8.70;99.90;;;;;;5034402;28;20713;-71
2021/12/17 14:18:03;;;;;;;8.20;6.28;;;8.60;99.90;;;;;;5036334;28;20205;-70
2021/12/17 14:20:39;;;;;;;13.07;6.78;;;8.60;99.90;;;;;;5034695;28;20275;-70
2021/12/17 14:23:09;;;;;;;9.93;6.50;;;8.60;99.90;;;;;;5035383;28;20189;-71
2021/12/17 14:25:40;;;;;;;9.52;6.22;;;8.60;99.90;;;;;;5035097;28;20729;-64
2021/12/17 14:28:16;;;;;;;7.85;6.25;;;8.60;99.90;;;;;;5034584;28;20296;-70
2021/12/17 14:30:48;;;;;;;8.70;6.22;;;8.60;99.90;;;;;;5035797;28;20705;-71
2021/12/17 14:33:19;;;;;;;10.82;6.90;;;8.60;99.90;;;;;;5035399;28;20826;-72
2021/12/17 14:35:54;;;;;;;11.32;6.93;;;8.60;99.90;;;;;;5038343;28;20217;-73
2021/12/17 14:38:33;;;;;;;9.50;6.05;;;8.50;99.90;;;;;;5038351;28;20251;-70
2021/12/17 14:41:03;;;;;;;13.30;6.30;;;8.50;99.90;;;;;;5040334;28;20209;-70
2021/12/17 14:43:40;;;;;;;9.90;6.15;;;8.60;99.90;;;;;;5041416;28;20229;-71
2021/12/17 14:46:22;;;;;;;7.05;5.85;;;8.60;99.90;;;;;;5040953;28;20217;-72
2021/12/17 14:49:14;;;;;;;9.63;5.35;;;8.60;99.90;;;;;;5039164;28;20206;-72
2021/12/17 14:58:07;;;;;;;9.38;6.78;;;8.60;99.90;;;;;;5038732;28;20193;-73
2021/12/17 15:03:21;;;;;;;10.00;7.30;;;8.70;99.90;;;;;;5024801;28;20213;-65
2021/12/17 15:05:55;;;;;;;12.70;7.95;;;8.70;99.90;;;;;;5037849;28;20832;-73
2021/12/17 15:08:23;;;;;;;10.93;8.20;;;8.70;99.90;;;;;;5039324;28;20205;-63
2021/12/17 15:10:52;;;;;;;11.07;7.30;;;8.70;99.90;;;;;;5038246;28;20255;-65
2021/12/17 15:13:19;;;;;;;12.95;8.50;;;8.70;99.90;;;;;;5038011;28;20194;-63
2021/12/17 15:15:49;;;;;;;9.73;7.78;;;8.70;99.90;;;;;;5037711;28;20263;-63
2021/12/17 15:18:19;;;;;;;8.20;6.80;;;8.70;99.90;;;;;;5036837;28;20198;-64
2021/12/17 15:20:50;;;;;;;10.52;6.63;;;8.70;99.90;;;;;;5038458;28;20205;-64
2021/12/17 15:23:20;;;;;;;8.45;6.20;;;8.70;99.90;;;;;;5039643;28;20363;-63
2021/12/17 15:25:49;;;;;;;5.80;4.60;;;8.70;99.90;;;;;;5039509;28;20980;-63
2021/12/17 15:28:21;;;;;;;5.80;4.85;;;8.70;99.90;;;;;;5038859;28;20210;-63
2021/12/17 15:30:52;;;;;;;8.75;4.50;;;8.70;99.90;;;;;;5039099;28;20467;-64
2021/12/17 15:33:20;;;;;;;7.22;5.60;;;8.70;99.90;;;;;;5038666;28;20743;-65
2021/12/17 15:35:49;;;;;;;6.75;5.80;;;8.60;99.90;;;;;;5039682;28;20222;-65
2021/12/17 15:38:18;;;;;;;6.25;5.60;;;8.60;99.90;;;;;;5039435;28;20487;-65
2021/12/17 15:40:48;;;;;;;4.80;4.40;;;8.70;99.90;;;;;;5039399;28;20267;-65
2021/12/17 15:43:17;;;;;;;5.45;4.60;;;8.70;99.90;;;;;;5039165;28;20304;-64
2021/12/17 15:45:48;;;;;;;3.97;3.58;;;8.80;99.90;;;;;;5039137;28;20304;-64
2021/12/17 15:48:19;;;;;;;2.63;2.42;;;8.70;99.90;;;;;;5039517;28;20284;-62